sensor_id;sensor_type;location;lat;lon;timestamp;temperature;humidity
49679;DHT22;35570;48.218;16.326;2023-03-11T00:02:16;10.50;59.00
49679;DHT22;35570;48.218;16.326;2023-03-11T00:04:42;10.40;58.90
49679;DHT22;35570;48.218;16.326;2023-03-11T00:07:09;10.40;59.10
49679;DHT22;35570;48.218;16.326;2023-03-11T00:09:35;10.40;59.30
49679;DHT22;35570;48.218;16.326;2023-03-11T00:12:02;10.40;59.30
49679;DHT22;35570;48.218;16.326;2023-03-11T00:14:28;10.40;59.50
49679;DHT22;35570;48.218;16.326;2023-03-11T00:16:53;10.40;59.40
49679;DHT22;35570;48.218;16.326;2023-03-11T00:19:20;10.30;59.50
49679;DHT22;35570;48.218;16.326;2023-03-11T00:21:45;10.30;59.40
49679;DHT22;35570;48.218;16.326;2023-03-11T00:24:11;10.30;60.40
49679;DHT22;35570;48.218;16.326;2023-03-11T00:26:38;10.30;60.30
49679;DHT22;35570;48.218;16.326;2023-03-11T00:29:03;10.30;60.00
49679;DHT22;35570;48.218;16.326;2023-03-11T00:31:29;10.20;59.90
49679;DHT22;35570;48.218;16.326;2023-03-11T00:33:55;10.10;60.40
49679;DHT22;35570;48.218;16.326;2023-03-11T00:36:28;10.10;61.40
49679;DHT22;35570;48.218;16.326;2023-03-11T00:38:58;10.00;62.90
49679;DHT22;35570;48.218;16.326;2023-03-11T00:41:24;9.70;70.60
49679;DHT22;35570;48.218;16.326;2023-03-11T00:43:50;9.10;74.60
49679;DHT22;35570;48.218;16.326;2023-03-11T00:46:16;8.80;78.80
49679;DHT22;35570;48.218;16.326;2023-03-11T00:48:42;8.40;77.20
49679;DHT22;35570;48.218;16.326;2023-03-11T00:51:12;8.30;79.00
49679;DHT22;35570;48.218;16.326;2023-03-11T00:53:39;8.30;80.20
49679;DHT22;35570;48.218;16.326;2023-03-11T00:56:08;8.30;78.80
49679;DHT22;35570;48.218;16.326;2023-03-11T00:58:34;8.30;77.10
49679;DHT22;35570;48.218;16.326;2023-03-11T01:01:06;8.20;77.50
49679;DHT22;35570;48.218;16.326;2023-03-11T01:03:31;8.20;77.60
49679;DHT22;35570;48.218;16.326;2023-03-11T01:05:57;8.30;78.90
49679;DHT22;35570;48.218;16.326;2023-03-11T01:08:22;8.40;78.60
49679;DHT22;35570;48.218;16.326;2023-03-11T01:10:48;8.40;77.50
49679;DHT22;35570;48.218;16.326;2023-03-11T01:13:14;8.30;78.00
49679;DHT22;35570;48.218;16.326;2023-03-11T01:15:40;8.30;76.80
49679;DHT22;35570;48.218;16.326;2023-03-11T01:18:06;8.30;74.90
49679;DHT22;35570;48.218;16.326;2023-03-11T01:20:33;8.30;74.60
49679;DHT22;35570;48.218;16.326;2023-03-11T01:22:59;8.40;74.20
49679;DHT22;35570;48.218;16.326;2023-03-11T01:25:25;8.40;73.50
49679;DHT22;35570;48.218;16.326;2023-03-11T01:27:51;8.50;71.40
49679;DHT22;35570;48.218;16.326;2023-03-11T01:30:22;8.50;69.10
49679;DHT22;35570;48.218;16.326;2023-03-11T01:32:48;8.60;70.30
49679;DHT22;35570;48.218;16.326;2023-03-11T01:35:15;8.70;69.50
49679;DHT22;35570;48.218;16.326;2023-03-11T01:37:42;8.70;66.30
49679;DHT22;35570;48.218;16.326;2023-03-11T01:40:16;8.80;65.40
49679;DHT22;35570;48.218;16.326;2023-03-11T01:42:43;8.70;65.50
49679;DHT22;35570;48.218;16.326;2023-03-11T01:48:13;8.70;62.10
49679;DHT22;35570;48.218;16.326;2023-03-11T01:50:43;8.50;61.50
49679;DHT22;35570;48.218;16.326;2023-03-11T01:53:10;8.40;61.70
49679;DHT22;35570;48.218;16.326;2023-03-11T01:55:42;8.30;61.30
49679;DHT22;35570;48.218;16.326;2023-03-11T01:58:10;8.30;60.50
49679;DHT22;35570;48.218;16.326;2023-03-11T02:00:38;8.30;59.80
49679;DHT22;35570;48.218;16.326;2023-03-11T02:03:10;8.30;59.40
49679;DHT22;35570;48.218;16.326;2023-03-11T02:05:39;8.20;57.40
49679;DHT22;35570;48.218;16.326;2023-03-11T02:08:05;8.10;57.50
49679;DHT22;35570;48.218;16.326;2023-03-11T02:10:31;8.00;55.30
49679;DHT22;35570;48.218;16.326;2023-03-11T02:12:57;7.80;55.70
49679;DHT22;35570;48.218;16.326;2023-03-11T02:15:23;7.80;54.80
49679;DHT22;35570;48.218;16.326;2023-03-11T02:17:50;7.80;54.70
49679;DHT22;35570;48.218;16.326;2023-03-11T02:22:54;7.60;54.70
49679;DHT22;35570;48.218;16.326;2023-03-11T02:27:49;7.30;54.90
49679;DHT22;35570;48.218;16.326;2023-03-11T02:30:17;7.30;55.40
49679;DHT22;35570;48.218;16.326;2023-03-11T02:32:44;7.20;55.40
49679;DHT22;35570;48.218;16.326;2023-03-11T02:35:13;7.20;56.20
49679;DHT22;35570;48.218;16.326;2023-03-11T02:37:47;7.20;55.80
49679;DHT22;35570;48.218;16.326;2023-03-11T02:40:53;7.10;56.00
49679;DHT22;35570;48.218;16.326;2023-03-11T02:43:19;7.00;55.70
49679;DHT22;35570;48.218;16.326;2023-03-11T02:45:47;6.90;55.90
49679;DHT22;35570;48.218;16.326;2023-03-11T02:48:15;6.80;56.30
49679;DHT22;35570;48.218;16.326;2023-03-11T02:50:43;6.80;56.20
49679;DHT22;35570;48.218;16.326;2023-03-11T02:53:08;6.80;56.30
49679;DHT22;35570;48.218;16.326;2023-03-11T02:55:34;6.80;56.50
49679;DHT22;35570;48.218;16.326;2023-03-11T02:58:00;6.80;56.30
49679;DHT22;35570;48.218;16.326;2023-03-11T03:00:27;6.80;56.30
49679;DHT22;35570;48.218;16.326;2023-03-11T03:02:52;6.70;55.80
49679;DHT22;35570;48.218;16.326;2023-03-11T03:05:20;6.70;55.60
49679;DHT22;35570;48.218;16.326;2023-03-11T03:07:49;6.60;55.40
49679;DHT22;35570;48.218;16.326;2023-03-11T03:10:16;6.60;55.60
49679;DHT22;35570;48.218;16.326;2023-03-11T03:12:42;6.60;55.20
49679;DHT22;35570;48.218;16.326;2023-03-11T03:15:08;6.60;55.20
49679;DHT22;35570;48.218;16.326;2023-03-11T03:17:34;6.50;55.10
49679;DHT22;35570;48.218;16.326;2023-03-11T03:20:00;6.30;55.60
49679;DHT22;35570;48.218;16.326;2023-03-11T03:22:26;6.30;55.80
49679;DHT22;35570;48.218;16.326;2023-03-11T03:24:54;6.30;56.10
49679;DHT22;35570;48.218;16.326;2023-03-11T03:27:19;6.30;56.50
49679;DHT22;35570;48.218;16.326;2023-03-11T03:29:45;6.30;56.80
49679;DHT22;35570;48.218;16.326;2023-03-11T03:32:11;6.40;57.10
49679;DHT22;35570;48.218;16.326;2023-03-11T03:34:36;6.40;56.80
49679;DHT22;35570;48.218;16.326;2023-03-11T03:37:02;6.50;56.70
49679;DHT22;35570;48.218;16.326;2023-03-11T03:39:28;6.60;56.70
49679;DHT22;35570;48.218;16.326;2023-03-11T03:41:53;6.60;56.40
49679;DHT22;35570;48.218;16.326;2023-03-11T03:44:19;6.60;56.50
49679;DHT22;35570;48.218;16.326;2023-03-11T03:46:44;6.60;56.30
49679;DHT22;35570;48.218;16.326;2023-03-11T03:49:10;6.50;55.90
49679;DHT22;35570;48.218;16.326;2023-03-11T03:51:36;6.50;56.30
49679;DHT22;35570;48.218;16.326;2023-03-11T03:54:01;6.40;56.40
49679;DHT22;35570;48.218;16.326;2023-03-11T03:56:27;6.40;56.50
49679;DHT22;35570;48.218;16.326;2023-03-11T03:58:53;6.40;56.20
49679;DHT22;35570;48.218;16.326;2023-03-11T04:01:19;6.50;56.30
49679;DHT22;35570;48.218;16.326;2023-03-11T04:03:45;6.30;55.10
49679;DHT22;35570;48.218;16.326;2023-03-11T04:08:41;6.00;55.50
49679;DHT22;35570;48.218;16.326;2023-03-11T04:11:07;5.90;55.50
49679;DHT22;35570;48.218;16.326;2023-03-11T04:13:33;5.90;56.20
49679;DHT22;35570;48.218;16.326;2023-03-11T04:15:58;5.90;55.60
49679;DHT22;35570;48.218;16.326;2023-03-11T04:18:24;5.80;55.00
49679;DHT22;35570;48.218;16.326;2023-03-11T04:20:50;5.80;54.90
49679;DHT22;35570;48.218;16.326;2023-03-11T04:23:16;5.80;54.70
49679;DHT22;35570;48.218;16.326;2023-03-11T04:25:41;5.70;55.00
49679;DHT22;35570;48.218;16.326;2023-03-11T04:28:07;5.70;53.80
49679;DHT22;35570;48.218;16.326;2023-03-11T04:30:33;5.70;54.10
49679;DHT22;35570;48.218;16.326;2023-03-11T04:32:58;5.60;53.10
49679;DHT22;35570;48.218;16.326;2023-03-11T04:35:24;5.40;52.90
49679;DHT22;35570;48.218;16.326;2023-03-11T04:37:49;5.30;53.50
49679;DHT22;35570;48.218;16.326;2023-03-11T04:40:15;5.30;53.20
49679;DHT22;35570;48.218;16.326;2023-03-11T04:42:41;5.40;53.20
49679;DHT22;35570;48.218;16.326;2023-03-11T04:45:07;5.40;52.30
49679;DHT22;35570;48.218;16.326;2023-03-11T04:47:33;5.40;52.00
49679;DHT22;35570;48.218;16.326;2023-03-11T04:49:59;5.30;52.50
49679;DHT22;35570;48.218;16.326;2023-03-11T04:55:09;5.20;52.10
49679;DHT22;35570;48.218;16.326;2023-03-11T04:57:35;5.20;51.80
49679;DHT22;35570;48.218;16.326;2023-03-11T05:00:01;5.10;52.00
49679;DHT22;35570;48.218;16.326;2023-03-11T05:02:31;5.00;51.40
49679;DHT22;35570;48.218;16.326;2023-03-11T05:04:56;5.00;51.70
49679;DHT22;35570;48.218;16.326;2023-03-11T05:07:22;5.00;52.10
49679;DHT22;35570;48.218;16.326;2023-03-11T05:09:48;5.00;51.80
49679;DHT22;35570;48.218;16.326;2023-03-11T05:12:14;5.00;51.70
49679;DHT22;35570;48.218;16.326;2023-03-11T05:14:39;5.00;51.50
49679;DHT22;35570;48.218;16.326;2023-03-11T05:17:05;4.90;52.00
49679;DHT22;35570;48.218;16.326;2023-03-11T05:19:31;4.90;51.80
49679;DHT22;35570;48.218;16.326;2023-03-11T05:21:59;4.90;52.40
49679;DHT22;35570;48.218;16.326;2023-03-11T05:24:25;5.00;52.10
49679;DHT22;35570;48.218;16.326;2023-03-11T05:26:51;5.00;52.10
49679;DHT22;35570;48.218;16.326;2023-03-11T05:29:17;5.10;51.90
49679;DHT22;35570;48.218;16.326;2023-03-11T05:31:42;5.10;51.60
49679;DHT22;35570;48.218;16.326;2023-03-11T05:34:08;5.00;51.90
49679;DHT22;35570;48.218;16.326;2023-03-11T05:36:34;4.90;51.90
49679;DHT22;35570;48.218;16.326;2023-03-11T05:38:59;4.90;51.90
49679;DHT22;35570;48.218;16.326;2023-03-11T05:41:25;5.00;52.10
49679;DHT22;35570;48.218;16.326;2023-03-11T05:43:50;5.00;52.20
49679;DHT22;35570;48.218;16.326;2023-03-11T05:46:16;5.10;51.50
49679;DHT22;35570;48.218;16.326;2023-03-11T05:48:42;5.10;51.70
49679;DHT22;35570;48.218;16.326;2023-03-11T05:51:09;5.10;51.60
49679;DHT22;35570;48.218;16.326;2023-03-11T05:53:36;5.20;52.00
49679;DHT22;35570;48.218;16.326;2023-03-11T05:56:02;5.20;51.60
49679;DHT22;35570;48.218;16.326;2023-03-11T05:58:29;5.20;51.60
49679;DHT22;35570;48.218;16.326;2023-03-11T06:00:54;5.30;51.60
49679;DHT22;35570;48.218;16.326;2023-03-11T06:03:20;5.40;51.70
49679;DHT22;35570;48.218;16.326;2023-03-11T06:05:47;5.40;51.00
49679;DHT22;35570;48.218;16.326;2023-03-11T06:08:13;5.30;51.10
49679;DHT22;35570;48.218;16.326;2023-03-11T06:10:39;5.30;51.40
49679;DHT22;35570;48.218;16.326;2023-03-11T06:13:05;5.30;51.40
49679;DHT22;35570;48.218;16.326;2023-03-11T06:15:35;5.40;52.00
49679;DHT22;35570;48.218;16.326;2023-03-11T06:18:00;5.40;51.80
49679;DHT22;35570;48.218;16.326;2023-03-11T06:20:26;5.50;51.80
49679;DHT22;35570;48.218;16.326;2023-03-11T06:22:52;5.60;51.40
49679;DHT22;35570;48.218;16.326;2023-03-11T06:25:18;5.70;51.50
49679;DHT22;35570;48.218;16.326;2023-03-11T06:27:48;5.70;50.90
49679;DHT22;35570;48.218;16.326;2023-03-11T06:30:15;5.70;51.50
49679;DHT22;35570;48.218;16.326;2023-03-11T06:32:43;5.70;51.30
49679;DHT22;35570;48.218;16.326;2023-03-11T06:35:09;5.80;51.10
49679;DHT22;35570;48.218;16.326;2023-03-11T06:37:35;5.90;50.50
49679;DHT22;35570;48.218;16.326;2023-03-11T06:40:02;6.00;50.80
49679;DHT22;35570;48.218;16.326;2023-03-11T06:42:29;6.10;50.90
49679;DHT22;35570;48.218;16.326;2023-03-11T06:44:55;5.90;50.30
49679;DHT22;35570;48.218;16.326;2023-03-11T06:47:20;5.90;51.60
49679;DHT22;35570;48.218;16.326;2023-03-11T06:49:46;6.00;51.50
49679;DHT22;35570;48.218;16.326;2023-03-11T06:52:12;6.00;51.30
49679;DHT22;35570;48.218;16.326;2023-03-11T06:54:37;6.20;51.10
49679;DHT22;35570;48.218;16.326;2023-03-11T06:57:06;6.30;50.40
49679;DHT22;35570;48.218;16.326;2023-03-11T06:59:32;6.30;50.70
49679;DHT22;35570;48.218;16.326;2023-03-11T07:01:57;6.10;51.00
49679;DHT22;35570;48.218;16.326;2023-03-11T07:04:23;6.10;51.30
49679;DHT22;35570;48.218;16.326;2023-03-11T07:06:49;6.20;51.20
49679;DHT22;35570;48.218;16.326;2023-03-11T07:09:15;6.30;51.20
49679;DHT22;35570;48.218;16.326;2023-03-11T07:11:40;6.40;51.30
49679;DHT22;35570;48.218;16.326;2023-03-11T07:14:06;6.30;51.20
49679;DHT22;35570;48.218;16.326;2023-03-11T07:16:32;6.40;51.40
49679;DHT22;35570;48.218;16.326;2023-03-11T07:18:59;6.30;51.20
49679;DHT22;35570;48.218;16.326;2023-03-11T07:21:28;6.20;51.40
49679;DHT22;35570;48.218;16.326;2023-03-11T07:23:55;6.30;52.00
49679;DHT22;35570;48.218;16.326;2023-03-11T07:26:22;6.40;50.70
49679;DHT22;35570;48.218;16.326;2023-03-11T07:28:49;6.50;50.60
49679;DHT22;35570;48.218;16.326;2023-03-11T07:31:21;6.70;50.70
49679;DHT22;35570;48.218;16.326;2023-03-11T07:33:47;6.60;49.50
49679;DHT22;35570;48.218;16.326;2023-03-11T07:36:16;6.70;50.30
49679;DHT22;35570;48.218;16.326;2023-03-11T07:38:42;7.00;49.80
49679;DHT22;35570;48.218;16.326;2023-03-11T07:41:09;7.20;49.50
49679;DHT22;35570;48.218;16.326;2023-03-11T07:43:39;7.30;49.10
49679;DHT22;35570;48.218;16.326;2023-03-11T07:46:10;7.20;48.90
49679;DHT22;35570;48.218;16.326;2023-03-11T07:48:37;7.00;49.20
49679;DHT22;35570;48.218;16.326;2023-03-11T07:51:06;7.10;49.00
49679;DHT22;35570;48.218;16.326;2023-03-11T07:53:32;7.00;49.40
49679;DHT22;35570;48.218;16.326;2023-03-11T07:55:59;7.00;49.20
49679;DHT22;35570;48.218;16.326;2023-03-11T07:58:25;7.20;49.20
49679;DHT22;35570;48.218;16.326;2023-03-11T08:00:51;7.40;47.70
49679;DHT22;35570;48.218;16.326;2023-03-11T08:03:17;7.40;48.20
49679;DHT22;35570;48.218;16.326;2023-03-11T08:05:43;7.50;48.60
49679;DHT22;35570;48.218;16.326;2023-03-11T08:08:14;7.60;47.40
49679;DHT22;35570;48.218;16.326;2023-03-11T08:10:39;7.70;47.80
49679;DHT22;35570;48.218;16.326;2023-03-11T08:13:05;8.00;48.90
49679;DHT22;35570;48.218;16.326;2023-03-11T08:15:31;8.40;48.00
49679;DHT22;35570;48.218;16.326;2023-03-11T08:17:56;8.70;45.50
49679;DHT22;35570;48.218;16.326;2023-03-11T08:20:23;8.80;46.00
49679;DHT22;35570;48.218;16.326;2023-03-11T08:22:49;8.80;45.50
49679;DHT22;35570;48.218;16.326;2023-03-11T08:25:14;9.00;45.90
49679;DHT22;35570;48.218;16.326;2023-03-11T08:27:40;9.20;46.00
49679;DHT22;35570;48.218;16.326;2023-03-11T08:30:07;9.40;45.20
49679;DHT22;35570;48.218;16.326;2023-03-11T08:32:33;9.20;45.50
49679;DHT22;35570;48.218;16.326;2023-03-11T08:34:58;9.10;46.00
49679;DHT22;35570;48.218;16.326;2023-03-11T08:37:24;9.20;46.20
49679;DHT22;35570;48.218;16.326;2023-03-11T08:39:50;9.40;44.90
49679;DHT22;35570;48.218;16.326;2023-03-11T08:42:16;9.50;44.90
49679;DHT22;35570;48.218;16.326;2023-03-11T08:44:42;9.60;44.00
49679;DHT22;35570;48.218;16.326;2023-03-11T08:47:08;9.50;43.70
49679;DHT22;35570;48.218;16.326;2023-03-11T08:49:34;9.30;45.00
49679;DHT22;35570;48.218;16.326;2023-03-11T08:52:01;9.50;44.00
49679;DHT22;35570;48.218;16.326;2023-03-11T08:54:27;9.60;43.30
49679;DHT22;35570;48.218;16.326;2023-03-11T08:56:52;9.40;43.30
49679;DHT22;35570;48.218;16.326;2023-03-11T08:59:18;9.60;43.30
49679;DHT22;35570;48.218;16.326;2023-03-11T09:01:44;9.90;42.70
49679;DHT22;35570;48.218;16.326;2023-03-11T09:04:11;10.10;42.60
49679;DHT22;35570;48.218;16.326;2023-03-11T09:06:41;10.20;42.10
49679;DHT22;35570;48.218;16.326;2023-03-11T09:09:07;10.40;42.30
49679;DHT22;35570;48.218;16.326;2023-03-11T09:11:33;10.50;42.20
49679;DHT22;35570;48.218;16.326;2023-03-11T09:14:02;10.80;42.30
49679;DHT22;35570;48.218;16.326;2023-03-11T09:16:27;11.10;41.30
49679;DHT22;35570;48.218;16.326;2023-03-11T09:18:53;11.10;39.90
49679;DHT22;35570;48.218;16.326;2023-03-11T09:21:19;10.80;39.40
49679;DHT22;35570;48.218;16.326;2023-03-11T09:23:45;10.80;40.60
49679;DHT22;35570;48.218;16.326;2023-03-11T09:26:12;10.60;40.30
49679;DHT22;35570;48.218;16.326;2023-03-11T09:28:38;10.40;39.60
49679;DHT22;35570;48.218;16.326;2023-03-11T09:31:05;10.50;40.20
49679;DHT22;35570;48.218;16.326;2023-03-11T09:33:30;10.60;40.40
49679;DHT22;35570;48.218;16.326;2023-03-11T09:35:57;10.90;41.20
49679;DHT22;35570;48.218;16.326;2023-03-11T09:38:23;10.80;39.90
49679;DHT22;35570;48.218;16.326;2023-03-11T09:49:02;9.90;42.10
49679;DHT22;35570;48.218;16.326;2023-03-11T09:51:39;9.70;42.30
49679;DHT22;35570;48.218;16.326;2023-03-11T09:54:11;9.60;41.90
49679;DHT22;35570;48.218;16.326;2023-03-11T09:56:37;9.40;42.50
49679;DHT22;35570;48.218;16.326;2023-03-11T09:59:30;9.10;43.10
49679;DHT22;35570;48.218;16.326;2023-03-11T10:01:57;8.80;44.10
49679;DHT22;35570;48.218;16.326;2023-03-11T10:04:36;8.70;44.80
49679;DHT22;35570;48.218;16.326;2023-03-11T10:07:20;8.70;45.80
49679;DHT22;35570;48.218;16.326;2023-03-11T10:09:52;8.70;44.30
49679;DHT22;35570;48.218;16.326;2023-03-11T10:23:03;9.10;44.90
49679;DHT22;35570;48.218;16.326;2023-03-11T10:28:31;9.70;44.70
49679;DHT22;35570;48.218;16.326;2023-03-11T10:31:47;10.10;43.50
49679;DHT22;35570;48.218;16.326;2023-03-11T10:34:15;10.70;43.80
49679;DHT22;35570;48.218;16.326;2023-03-11T10:39:36;10.80;42.30
49679;DHT22;35570;48.218;16.326;2023-03-11T10:42:04;11.80;41.70
49679;DHT22;35570;48.218;16.326;2023-03-11T10:44:33;13.00;39.10
49679;DHT22;35570;48.218;16.326;2023-03-11T10:47:00;14.20;38.40
49679;DHT22;35570;48.218;16.326;2023-03-11T10:49:26;14.40;36.30
49679;DHT22;35570;48.218;16.326;2023-03-11T10:51:53;13.60;36.30
49679;DHT22;35570;48.218;16.326;2023-03-11T10:54:35;12.60;37.60
49679;DHT22;35570;48.218;16.326;2023-03-11T10:57:05;11.70;39.40
49679;DHT22;35570;48.218;16.326;2023-03-11T10:59:49;11.00;40.90
49679;DHT22;35570;48.218;16.326;2023-03-11T11:04:46;10.00;42.00
49679;DHT22;35570;48.218;16.326;2023-03-11T11:09:45;10.80;41.20
49679;DHT22;35570;48.218;16.326;2023-03-11T11:12:14;12.30;38.50
49679;DHT22;35570;48.218;16.326;2023-03-11T11:14:46;13.10;37.50
49679;DHT22;35570;48.218;16.326;2023-03-11T11:17:23;14.00;35.90
49679;DHT22;35570;48.218;16.326;2023-03-11T11:19:52;15.20;35.40
49679;DHT22;35570;48.218;16.326;2023-03-11T11:22:19;15.70;34.70
49679;DHT22;35570;48.218;16.326;2023-03-11T11:24:47;15.90;33.50
49679;DHT22;35570;48.218;16.326;2023-03-11T11:27:23;15.50;34.20
49679;DHT22;35570;48.218;16.326;2023-03-11T11:30:14;14.70;34.10
49679;DHT22;35570;48.218;16.326;2023-03-11T11:32:40;14.00;36.00
49679;DHT22;35570;48.218;16.326;2023-03-11T11:35:11;13.80;36.70
49679;DHT22;35570;48.218;16.326;2023-03-11T11:38:07;13.40;36.60
49679;DHT22;35570;48.218;16.326;2023-03-11T11:40:33;12.80;37.30
49679;DHT22;35570;48.218;16.326;2023-03-11T11:43:06;12.30;39.40
49679;DHT22;35570;48.218;16.326;2023-03-11T11:45:38;11.80;39.00
49679;DHT22;35570;48.218;16.326;2023-03-11T11:48:21;11.20;40.10
49679;DHT22;35570;48.218;16.326;2023-03-11T11:50:54;10.70;39.80
49679;DHT22;35570;48.218;16.326;2023-03-11T11:55:51;11.30;39.90
49679;DHT22;35570;48.218;16.326;2023-03-11T11:58:19;11.40;39.00
49679;DHT22;35570;48.218;16.326;2023-03-11T12:06:53;10.70;38.90
49679;DHT22;35570;48.218;16.326;2023-03-11T12:09:47;11.40;38.80
49679;DHT22;35570;48.218;16.326;2023-03-11T12:15:14;11.30;37.50
49679;DHT22;35570;48.218;16.326;2023-03-11T12:17:43;11.00;38.20
49679;DHT22;35570;48.218;16.326;2023-03-11T12:20:19;10.90;39.00
49679;DHT22;35570;48.218;16.326;2023-03-11T12:25:22;10.60;40.40
49679;DHT22;35570;48.218;16.326;2023-03-11T12:28:22;10.40;39.90
49679;DHT22;35570;48.218;16.326;2023-03-11T12:30:55;10.30;39.50
49679;DHT22;35570;48.218;16.326;2023-03-11T12:33:25;10.00;40.90
49679;DHT22;35570;48.218;16.326;2023-03-11T12:35:54;9.70;40.60
49679;DHT22;35570;48.218;16.326;2023-03-11T12:38:38;9.60;42.10
49679;DHT22;35570;48.218;16.326;2023-03-11T12:48:48;9.10;42.60
49679;DHT22;35570;48.218;16.326;2023-03-11T12:56:52;9.00;44.00
49679;DHT22;35570;48.218;16.326;2023-03-11T13:02:28;8.80;43.80
49679;DHT22;35570;48.218;16.326;2023-03-11T13:05:04;8.80;43.90
49679;DHT22;35570;48.218;16.326;2023-03-11T13:07:40;8.80;44.60
49679;DHT22;35570;48.218;16.326;2023-03-11T13:12:54;8.80;45.40
49679;DHT22;35570;48.218;16.326;2023-03-11T13:18:15;8.60;45.10
49679;DHT22;35570;48.218;16.326;2023-03-11T13:20:45;8.60;45.90
49679;DHT22;35570;48.218;16.326;2023-03-11T13:33:57;8.90;45.70
49679;DHT22;35570;48.218;16.326;2023-03-11T13:41:41;8.90;45.60
49679;DHT22;35570;48.218;16.326;2023-03-11T13:46:52;8.90;45.10
49679;DHT22;35570;48.218;16.326;2023-03-11T13:52:08;8.80;44.60
49679;DHT22;35570;48.218;16.326;2023-03-11T13:57:19;8.70;42.70
49679;DHT22;35570;48.218;16.326;2023-03-11T13:59:51;8.50;43.30
49679;DHT22;35570;48.218;16.326;2023-03-11T14:02:19;8.30;43.80
49679;DHT22;35570;48.218;16.326;2023-03-11T14:05:04;8.30;45.00
49679;DHT22;35570;48.218;16.326;2023-03-11T14:07:33;8.30;45.30
49679;DHT22;35570;48.218;16.326;2023-03-11T14:12:45;8.30;45.00
49679;DHT22;35570;48.218;16.326;2023-03-11T14:15:36;8.20;45.00
49679;DHT22;35570;48.218;16.326;2023-03-11T14:18:25;8.20;45.00
49679;DHT22;35570;48.218;16.326;2023-03-11T14:20:51;8.10;45.20
49679;DHT22;35570;48.218;16.326;2023-03-11T14:23:18;8.00;45.10
49679;DHT22;35570;48.218;16.326;2023-03-11T14:25:44;8.00;45.30
49679;DHT22;35570;48.218;16.326;2023-03-11T14:28:19;8.10;44.70
49679;DHT22;35570;48.218;16.326;2023-03-11T14:30:56;8.30;44.80
49679;DHT22;35570;48.218;16.326;2023-03-11T14:33:24;8.60;44.80
49679;DHT22;35570;48.218;16.326;2023-03-11T14:35:58;9.00;43.10
49679;DHT22;35570;48.218;16.326;2023-03-11T14:38:30;9.30;42.60
49679;DHT22;35570;48.218;16.326;2023-03-11T14:41:00;9.50;43.00
49679;DHT22;35570;48.218;16.326;2023-03-11T14:43:36;9.30;41.90
49679;DHT22;35570;48.218;16.326;2023-03-11T14:46:05;9.00;42.40
49679;DHT22;35570;48.218;16.326;2023-03-11T14:48:36;8.70;41.40
49679;DHT22;35570;48.218;16.326;2023-03-11T14:51:07;8.60;42.10
49679;DHT22;35570;48.218;16.326;2023-03-11T14:54:23;8.40;43.40
49679;DHT22;35570;48.218;16.326;2023-03-11T14:56:33;8.30;43.10
49679;DHT22;35570;48.218;16.326;2023-03-11T14:59:07;8.10;42.70
49679;DHT22;35570;48.218;16.326;2023-03-11T15:01:38;8.00;42.90
49679;DHT22;35570;48.218;16.326;2023-03-11T15:04:33;8.10;43.80
49679;DHT22;35570;48.218;16.326;2023-03-11T15:07:03;8.20;43.00
49679;DHT22;35570;48.218;16.326;2023-03-11T15:09:30;8.40;42.70
49679;DHT22;35570;48.218;16.326;2023-03-11T15:11:58;8.50;42.90
49679;DHT22;35570;48.218;16.326;2023-03-11T15:14:25;8.50;42.40
49679;DHT22;35570;48.218;16.326;2023-03-11T15:16:52;8.60;42.90
49679;DHT22;35570;48.218;16.326;2023-03-11T15:21:58;8.40;42.10
49679;DHT22;35570;48.218;16.326;2023-03-11T15:24:26;8.20;42.30
49679;DHT22;35570;48.218;16.326;2023-03-11T15:29:18;7.90;42.00
49679;DHT22;35570;48.218;16.326;2023-03-11T15:31:44;7.90;42.40
49679;DHT22;35570;48.218;16.326;2023-03-11T15:34:31;7.90;42.50
49679;DHT22;35570;48.218;16.326;2023-03-11T15:37:03;7.90;42.80
49679;DHT22;35570;48.218;16.326;2023-03-11T15:42:10;7.80;42.60
49679;DHT22;35570;48.218;16.326;2023-03-11T15:45:09;7.80;43.60
49679;DHT22;35570;48.218;16.326;2023-03-11T15:47:36;7.80;42.90
49679;DHT22;35570;48.218;16.326;2023-03-11T15:50:24;7.80;43.30
49679;DHT22;35570;48.218;16.326;2023-03-11T15:52:53;7.80;42.40
49679;DHT22;35570;48.218;16.326;2023-03-11T15:55:20;7.70;42.40
49679;DHT22;35570;48.218;16.326;2023-03-11T15:57:47;7.60;42.60
49679;DHT22;35570;48.218;16.326;2023-03-11T16:00:20;7.60;42.90
49679;DHT22;35570;48.218;16.326;2023-03-11T16:02:50;7.50;43.60
49679;DHT22;35570;48.218;16.326;2023-03-11T16:05:21;7.50;43.10
49679;DHT22;35570;48.218;16.326;2023-03-11T16:07:47;7.40;44.00
49679;DHT22;35570;48.218;16.326;2023-03-11T16:10:14;7.40;45.10
49679;DHT22;35570;48.218;16.326;2023-03-11T16:12:40;7.30;44.10
49679;DHT22;35570;48.218;16.326;2023-03-11T16:15:24;7.20;44.10
49679;DHT22;35570;48.218;16.326;2023-03-11T16:17:54;7.30;45.40
49679;DHT22;35570;48.218;16.326;2023-03-11T16:20:21;7.30;45.90
49679;DHT22;35570;48.218;16.326;2023-03-11T16:22:49;7.30;46.10
49679;DHT22;35570;48.218;16.326;2023-03-11T16:25:20;7.30;45.40
49679;DHT22;35570;48.218;16.326;2023-03-11T16:27:49;7.40;46.70
49679;DHT22;35570;48.218;16.326;2023-03-11T16:30:16;7.30;45.90
49679;DHT22;35570;48.218;16.326;2023-03-11T16:32:42;7.20;45.70
49679;DHT22;35570;48.218;16.326;2023-03-11T16:35:09;7.20;46.70
49679;DHT22;35570;48.218;16.326;2023-03-11T16:37:35;7.10;47.20
49679;DHT22;35570;48.218;16.326;2023-03-11T16:40:01;7.00;46.20
49679;DHT22;35570;48.218;16.326;2023-03-11T16:42:27;7.00;46.70
49679;DHT22;35570;48.218;16.326;2023-03-11T16:44:52;6.90;47.00
49679;DHT22;35570;48.218;16.326;2023-03-11T16:47:18;6.90;46.90
49679;DHT22;35570;48.218;16.326;2023-03-11T16:49:44;6.90;47.40
49679;DHT22;35570;48.218;16.326;2023-03-11T16:52:10;6.90;47.20
49679;DHT22;35570;48.218;16.326;2023-03-11T16:54:36;6.90;47.60
49679;DHT22;35570;48.218;16.326;2023-03-11T16:57:01;6.90;47.70
49679;DHT22;35570;48.218;16.326;2023-03-11T16:59:27;6.90;47.70
49679;DHT22;35570;48.218;16.326;2023-03-11T17:01:53;6.90;47.70
49679;DHT22;35570;48.218;16.326;2023-03-11T17:04:19;6.90;47.10
49679;DHT22;35570;48.218;16.326;2023-03-11T17:06:44;6.80;47.70
49679;DHT22;35570;48.218;16.326;2023-03-11T17:09:10;6.90;48.10
49679;DHT22;35570;48.218;16.326;2023-03-11T17:11:36;6.80;47.60
49679;DHT22;35570;48.218;16.326;2023-03-11T17:14:02;6.70;47.50
49679;DHT22;35570;48.218;16.326;2023-03-11T17:16:28;6.60;47.50
49679;DHT22;35570;48.218;16.326;2023-03-11T17:18:55;6.60;48.30
49679;DHT22;35570;48.218;16.326;2023-03-11T17:21:20;6.50;49.00
49679;DHT22;35570;48.218;16.326;2023-03-11T17:23:47;6.50;48.60
49679;DHT22;35570;48.218;16.326;2023-03-11T17:26:19;6.50;50.10
49679;DHT22;35570;48.218;16.326;2023-03-11T17:28:46;6.40;48.30
49679;DHT22;35570;48.218;16.326;2023-03-11T17:31:14;6.40;49.10